createdAt,value
2023-03-06T00:00:40.591Z,7.48
2023-03-06T00:03:07.342Z,7.30
2023-03-06T00:05:34.158Z,7.04
2023-03-06T00:08:01.239Z,7.06
2023-03-06T00:10:30.671Z,7.02
2023-03-06T00:13:00.993Z,7.38
2023-03-06T00:15:28.278Z,7.12
2023-03-06T00:17:55.954Z,7.07
2023-03-06T00:20:23.559Z,7.13
2023-03-06T00:22:51.761Z,7.09
2023-03-06T00:25:20.890Z,7.04
2023-03-06T00:27:49.436Z,7.34
2023-03-06T00:30:24.774Z,7.59
2023-03-06T00:32:53.093Z,7.48
2023-03-06T00:35:19.791Z,7.38
2023-03-06T00:37:46.645Z,7.42
2023-03-06T00:40:18.759Z,7.45
2023-03-06T00:42:45.676Z,7.26
2023-03-06T00:45:14.030Z,7.47
2023-03-06T00:47:41.387Z,7.27
2023-03-06T00:50:08.925Z,7.29
2023-03-06T00:52:36.115Z,7.29
2023-03-06T00:55:02.860Z,7.20
2023-03-06T00:57:30.615Z,7.20
2023-03-06T00:59:58.515Z,7.39
2023-03-06T01:02:25.755Z,7.27
2023-03-06T01:04:53.382Z,7.29
2023-03-06T01:07:21.037Z,7.40
2023-03-06T01:09:48.108Z,7.44
2023-03-06T01:12:15.044Z,7.42
2023-03-06T01:14:41.743Z,7.56
2023-03-06T01:17:08.469Z,7.40
2023-03-06T01:19:35.423Z,7.23
2023-03-06T01:22:02.494Z,7.22
2023-03-06T01:24:29.409Z,7.31
2023-03-06T01:26:56.054Z,7.31
2023-03-06T01:29:22.768Z,7.14
2023-03-06T01:31:49.444Z,7.02
2023-03-06T01:34:16.159Z,6.80
2023-03-06T01:36:42.892Z,6.90
2023-03-06T01:39:10.039Z,6.66
2023-03-06T01:41:36.963Z,6.72
2023-03-06T01:44:03.757Z,6.71
2023-03-06T01:46:34.062Z,6.69
2023-03-06T01:49:05.877Z,6.71
2023-03-06T01:51:38.282Z,6.74
2023-03-06T01:54:10.658Z,6.76
2023-03-06T01:56:39.868Z,6.62
2023-03-06T01:59:07.566Z,6.56
2023-03-06T02:01:34.682Z,6.63
2023-03-06T02:04:01.825Z,6.45
2023-03-06T02:06:28.752Z,6.21
2023-03-06T02:08:56.220Z,6.28
2023-03-06T02:11:24.793Z,6.30
2023-03-06T02:13:53.908Z,6.40
2023-03-06T02:16:26.889Z,6.56
2023-03-06T02:18:53.781Z,6.49
2023-03-06T02:21:25.593Z,6.55
2023-03-06T02:24:50.873Z,6.32
2023-03-06T02:27:19.037Z,6.25
2023-03-06T02:29:46.595Z,6.19
2023-03-06T02:32:13.386Z,6.06
2023-03-06T02:34:40.030Z,6.09
2023-03-06T02:37:11.019Z,6.08
2023-03-06T02:39:48.937Z,6.33
2023-03-06T02:42:21.745Z,6.21
2023-03-06T02:44:49.938Z,6.05
2023-03-06T02:47:16.705Z,6.03
2023-03-06T02:49:43.362Z,6.02
2023-03-06T02:52:10.113Z,5.97
2023-03-06T02:54:36.835Z,5.93
2023-03-06T02:57:03.634Z,5.83
2023-03-06T02:59:30.527Z,6.06
2023-03-06T03:01:57.202Z,5.96
2023-03-06T03:04:23.936Z,5.96
2023-03-06T03:06:50.654Z,6.08
2023-03-06T03:09:17.529Z,6.20
2023-03-06T03:11:44.732Z,6.22
2023-03-06T03:14:11.468Z,6.21
2023-03-06T03:16:39.210Z,6.22
2023-03-06T03:19:06.110Z,6.21
2023-03-06T03:21:32.837Z,6.21
2023-03-06T03:23:59.927Z,6.43
2023-03-06T03:26:26.806Z,6.36
2023-03-06T03:28:53.442Z,6.29
2023-03-06T03:31:20.756Z,6.30
2023-03-06T03:33:47.756Z,6.08
2023-03-06T03:36:14.498Z,6.29
2023-03-06T03:38:41.497Z,6.43
2023-03-06T03:41:08.140Z,6.59
2023-03-06T03:43:34.966Z,6.55
2023-03-06T03:46:01.693Z,6.52
2023-03-06T03:48:28.386Z,6.54
2023-03-06T03:50:55.310Z,6.64
2023-03-06T03:53:22.215Z,6.60
2023-03-06T03:55:49.197Z,6.36
2023-03-06T03:58:15.999Z,6.33
2023-03-06T04:00:43.354Z,6.27
2023-03-06T04:03:10.306Z,6.39
2023-03-06T04:05:37.026Z,6.43
2023-03-06T04:08:04.384Z,6.37
2023-03-06T04:10:31.187Z,5.92
2023-03-06T04:12:57.917Z,5.79
2023-03-06T04:15:24.663Z,5.76
2023-03-06T04:17:52.995Z,5.64
2023-03-06T04:20:19.831Z,5.56
2023-03-06T04:22:47.693Z,5.29
2023-03-06T04:25:14.804Z,5.46
2023-03-06T04:27:43.158Z,5.51
2023-03-06T04:30:10.531Z,5.62
2023-03-06T04:32:37.452Z,5.70
2023-03-06T04:35:05.401Z,5.66
2023-03-06T04:37:32.768Z,5.72
2023-03-06T04:40:00.958Z,5.69
2023-03-06T04:42:32.206Z,5.77
2023-03-06T04:44:59.549Z,5.89
2023-03-06T04:47:26.407Z,5.81
2023-03-06T04:49:53.104Z,5.79
2023-03-06T04:52:19.843Z,5.85
2023-03-06T04:54:46.611Z,5.91
2023-03-06T04:57:14.263Z,5.92
2023-03-06T04:59:41.183Z,5.87
2023-03-06T05:02:08.322Z,6.00
2023-03-06T05:04:36.566Z,5.90
2023-03-06T05:07:03.542Z,5.75
2023-03-06T05:09:30.216Z,5.62
2023-03-06T05:11:56.875Z,5.51
2023-03-06T05:14:24.045Z,5.45
2023-03-06T05:16:50.829Z,5.54
2023-03-06T05:19:17.541Z,5.63
2023-03-06T05:21:44.180Z,5.51
2023-03-06T05:24:10.838Z,5.55
2023-03-06T05:26:37.955Z,5.53
2023-03-06T05:29:04.617Z,5.97
2023-03-06T05:31:32.858Z,6.04
2023-03-06T05:34:00.767Z,5.87
2023-03-06T05:36:28.017Z,6.02
2023-03-06T05:38:54.935Z,5.91
2023-03-06T05:41:21.861Z,6.08
2023-03-06T05:43:48.603Z,6.13
2023-03-06T05:46:15.299Z,6.29
2023-03-06T05:48:42.119Z,6.26
2023-03-06T05:51:11.011Z,6.06
2023-03-06T05:53:37.960Z,6.64
2023-03-06T05:56:09.718Z,6.69
2023-03-06T05:58:37.778Z,6.83
2023-03-06T06:01:13.194Z,7.04
2023-03-06T06:03:40.600Z,7.22
2023-03-06T06:06:13.617Z,7.36
2023-03-06T06:08:41.572Z,7.13
2023-03-06T06:11:10.270Z,7.03
2023-03-06T06:13:38.501Z,7.36
2023-03-06T06:16:15.807Z,6.92
2023-03-06T06:18:43.533Z,7.07
2023-03-06T06:21:13.283Z,6.79
2023-03-06T06:23:39.983Z,6.82
2023-03-06T06:26:08.311Z,6.77
2023-03-06T06:28:35.428Z,6.94
2023-03-06T06:31:12.423Z,7.45
2023-03-06T06:33:42.029Z,7.98
2023-03-06T06:36:21.066Z,8.04
2023-03-06T06:38:49.247Z,8.13
2023-03-06T06:41:50.656Z,8.34
2023-03-06T06:44:08.690Z,8.75
2023-03-06T06:49:22.985Z,8.47
2023-03-06T06:51:49.812Z,8.41
2023-03-06T06:54:16.652Z,9.00
2023-03-06T06:56:43.359Z,9.49
2023-03-06T06:59:16.619Z,9.48
2023-03-06T07:01:44.947Z,10.37
2023-03-06T07:04:15.063Z,11.11
2023-03-06T07:06:43.036Z,9.37
2023-03-06T07:09:10.371Z,9.45
2023-03-06T07:11:38.504Z,9.55
2023-03-06T07:14:05.732Z,10.31
2023-03-06T07:16:32.438Z,10.59
2023-03-06T07:18:59.077Z,11.42
2023-03-06T07:21:25.951Z,11.32
2023-03-06T07:23:56.102Z,10.96
2023-03-06T07:26:23.797Z,11.11
2023-03-06T07:28:53.592Z,10.96
2023-03-06T07:31:22.547Z,11.08
2023-03-06T07:33:50.436Z,9.87
2023-03-06T07:36:18.429Z,10.08
2023-03-06T07:38:46.040Z,10.92
2023-03-06T07:41:15.288Z,11.09
2023-03-06T07:43:46.604Z,11.52
2023-03-06T07:46:14.485Z,11.77
2023-03-06T07:48:42.234Z,12.29
2023-03-06T07:51:14.674Z,12.64
2023-03-06T07:53:41.870Z,12.14
2023-03-06T07:56:09.510Z,12.45
2023-03-06T07:58:37.855Z,13.15
2023-03-06T08:01:13.109Z,12.84
2023-03-06T08:03:40.219Z,11.92
2023-03-06T08:06:18.920Z,11.77
2023-03-06T08:08:47.110Z,12.16
2023-03-06T08:11:15.685Z,12.79
2023-03-06T08:13:42.955Z,12.89
2023-03-06T08:16:11.117Z,13.35
2023-03-06T08:18:40.342Z,13.69
2023-03-06T08:21:10.672Z,13.41
2023-03-06T08:23:38.074Z,13.82
2023-03-06T08:26:08.238Z,13.44
2023-03-06T08:28:35.337Z,14.39
2023-03-06T08:31:31.712Z,13.91
2023-03-06T08:34:01.732Z,13.62
2023-03-06T08:36:28.967Z,13.73
2023-03-06T08:38:56.192Z,13.78
2023-03-06T08:41:23.224Z,13.86
2023-03-06T08:43:50.751Z,13.74
2023-03-06T08:46:18.988Z,13.15
2023-03-06T08:48:47.888Z,13.94
2023-03-06T08:51:15.304Z,14.52
2023-03-06T08:53:43.972Z,13.90
2023-03-06T08:56:23.139Z,14.51
2023-03-06T08:58:50.586Z,14.57
2023-03-06T09:01:20.956Z,14.18
2023-03-06T09:03:47.838Z,14.65
2023-03-06T09:06:15.514Z,15.16
2023-03-06T09:08:44.016Z,15.42
2023-03-06T09:11:12.165Z,15.05
2023-03-06T09:13:40.032Z,15.17
2023-03-06T09:16:07.516Z,15.09
2023-03-06T09:18:34.814Z,15.38
2023-03-06T09:21:02.016Z,14.28
2023-03-06T09:23:28.698Z,13.72
2023-03-06T09:25:56.916Z,14.55
2023-03-06T09:28:24.411Z,13.52
2023-03-06T09:30:51.922Z,14.27
2023-03-06T09:33:19.418Z,14.52
2023-03-06T09:35:56.838Z,14.03
2023-03-06T09:38:28.135Z,14.09
2023-03-06T09:40:58.370Z,15.20
2023-03-06T09:43:33.466Z,15.09
2023-03-06T09:46:00.345Z,14.77
2023-03-06T09:49:15.443Z,15.15
2023-03-06T09:52:10.201Z,14.73
2023-03-06T09:54:46.227Z,15.31
2023-03-06T09:57:27.113Z,15.60
2023-03-06T09:59:56.843Z,14.71
2023-03-06T10:02:41.209Z,15.25
2023-03-06T10:05:15.883Z,15.31
2023-03-06T10:08:01.993Z,15.68
2023-03-06T10:10:40.794Z,15.43
2023-03-06T10:13:14.085Z,15.22
2023-03-06T10:15:44.129Z,16.11
2023-03-06T10:18:12.560Z,16.39
2023-03-06T10:21:18.511Z,15.28
2023-03-06T10:23:57.424Z,15.31
2023-03-06T10:26:27.035Z,15.69
2023-03-06T10:29:14.711Z,16.25
2023-03-06T10:31:49.548Z,17.02
2023-03-06T10:34:19.359Z,15.34
2023-03-06T10:36:46.062Z,15.11
2023-03-06T10:39:21.970Z,16.35
2023-03-06T10:41:49.941Z,16.70
2023-03-06T10:44:18.204Z,16.31
2023-03-06T10:46:48.036Z,16.46
2023-03-06T10:49:26.975Z,15.60
2023-03-06T10:51:59.850Z,16.05
2023-03-06T10:54:28.261Z,16.01
2023-03-06T10:56:54.965Z,15.59
2023-03-06T10:59:25.455Z,16.07
2023-03-06T11:02:15.058Z,16.52
2023-03-06T11:04:46.730Z,17.38
2023-03-06T11:07:18.937Z,16.96
2023-03-06T11:09:59.259Z,16.72
2023-03-06T11:12:40.611Z,16.88
2023-03-06T11:15:10.117Z,15.94
2023-03-06T11:17:48.680Z,15.94
2023-03-06T11:20:18.626Z,15.65
2023-03-06T11:22:56.815Z,15.94
2023-03-06T11:25:29.878Z,16.15
2023-03-06T11:28:28.309Z,15.94
2023-03-06T11:31:02.602Z,15.68
2023-03-06T11:33:49.957Z,14.79
2023-03-06T11:36:26.708Z,15.16
2023-03-06T11:38:54.746Z,15.93
2023-03-06T11:41:35.816Z,16.26
2023-03-06T11:44:11.448Z,16.42
2023-03-06T11:46:43.999Z,17.13
2023-03-06T11:49:22.853Z,16.55
2023-03-06T11:51:59.734Z,16.92
2023-03-06T11:54:26.649Z,17.00
2023-03-06T11:57:10.956Z,16.82
2023-03-06T11:59:56.040Z,17.38
2023-03-06T12:06:09.774Z,16.78
2023-03-06T12:08:50.095Z,16.95
2023-03-06T12:11:22.845Z,17.62
2023-03-06T12:14:14.313Z,17.29
2023-03-06T12:16:43.982Z,17.63
2023-03-06T12:19:21.406Z,16.99
2023-03-06T12:22:00.831Z,16.10
2023-03-06T12:24:36.764Z,16.43
2023-03-06T12:27:13.386Z,16.37
2023-03-06T12:29:57.964Z,15.61
2023-03-06T12:32:35.359Z,16.00
2023-03-06T12:35:47.922Z,16.11
2023-03-06T12:38:42.086Z,15.90
2023-03-06T12:41:26.670Z,16.32
2023-03-06T12:44:17.863Z,16.51
2023-03-06T12:46:49.867Z,16.86
2023-03-06T12:49:33.332Z,16.62
2023-03-06T12:52:04.410Z,16.01
2023-03-06T12:54:38.744Z,16.78
2023-03-06T12:57:08.535Z,16.66
2023-03-06T12:59:44.654Z,16.39
2023-03-06T13:02:29.564Z,16.38
2023-03-06T13:05:21.664Z,16.50
2023-03-06T13:07:57.465Z,16.20
2023-03-06T13:10:30.536Z,16.61
2023-03-06T13:12:57.303Z,16.76
2023-03-06T13:15:42.201Z,16.47
2023-03-06T13:18:24.019Z,16.84
2023-03-06T13:20:57.652Z,16.32
2023-03-06T13:23:51.712Z,16.15
2023-03-06T13:26:24.568Z,17.00
2023-03-06T13:28:54.273Z,17.09
2023-03-06T13:31:31.012Z,16.56
2023-03-06T13:34:01.872Z,16.30
2023-03-06T13:36:33.857Z,15.85
2023-03-06T13:39:02.707Z,16.21
2023-03-06T13:41:32.438Z,16.75
2023-03-06T13:44:01.668Z,16.67
2023-03-06T13:46:38.082Z,16.36
2023-03-06T13:49:11.159Z,16.68
2023-03-06T13:51:48.195Z,16.93
2023-03-06T13:54:26.750Z,16.32
2023-03-06T13:57:15.282Z,16.14
2023-03-06T14:00:12.431Z,15.74
2023-03-06T14:02:54.968Z,15.40
2023-03-06T14:05:22.740Z,15.30
2023-03-06T14:08:06.034Z,15.23
2023-03-06T14:10:35.523Z,15.10
2023-03-06T14:13:14.227Z,15.04
2023-03-06T14:15:48.535Z,14.79
2023-03-06T14:18:51.281Z,14.79
2023-03-06T14:21:55.090Z,14.80
2023-03-06T14:24:40.620Z,14.73
2023-03-06T14:27:07.459Z,14.74
2023-03-06T14:29:34.489Z,14.51
2023-03-06T14:32:02.394Z,14.68
2023-03-06T14:34:33.278Z,14.93
2023-03-06T14:37:08.317Z,14.95
2023-03-06T14:39:42.013Z,14.91
2023-03-06T14:42:27.042Z,15.00
2023-03-06T14:45:17.951Z,14.73
2023-03-06T14:47:51.501Z,14.78
2023-03-06T14:50:32.792Z,14.91
2023-03-06T14:53:15.925Z,14.66
2023-03-06T14:55:50.523Z,14.58
2023-03-06T14:58:35.730Z,14.72
2023-03-06T15:01:06.723Z,14.57
2023-03-06T15:03:53.130Z,14.66
2023-03-06T15:06:24.873Z,14.74
2023-03-06T15:09:14.555Z,14.66
2023-03-06T15:12:01.246Z,14.74
2023-03-06T15:14:34.732Z,14.97
2023-03-06T15:17:27.625Z,14.72
2023-03-06T15:19:56.795Z,14.69
2023-03-06T15:22:31.896Z,14.56
2023-03-06T15:25:27.473Z,14.71
2023-03-06T15:27:55.679Z,14.75
2023-03-06T15:30:30.588Z,14.48
2023-03-06T15:33:26.165Z,14.82
2023-03-06T15:35:58.431Z,14.70
2023-03-06T15:38:31.712Z,14.63
2023-03-06T15:41:00.786Z,14.65
2023-03-06T15:43:32.226Z,14.68
2023-03-06T15:46:00.722Z,14.73
2023-03-06T15:48:28.402Z,14.77
2023-03-06T15:50:55.301Z,14.75
2023-03-06T15:53:22.083Z,14.77
2023-03-06T15:55:50.196Z,14.73
2023-03-06T15:58:21.528Z,14.67
2023-03-06T16:00:48.248Z,14.64
2023-03-06T16:03:15.002Z,14.63
2023-03-06T16:05:41.715Z,14.54
2023-03-06T16:08:10.943Z,14.48
2023-03-06T16:10:40.841Z,14.46
2023-03-06T16:13:12.715Z,14.47
2023-03-06T16:15:44.939Z,14.33
2023-03-06T16:18:12.592Z,14.26
2023-03-06T16:20:40.302Z,14.41
2023-03-06T16:23:10.465Z,14.27
2023-03-06T16:25:43.226Z,13.85
2023-03-06T16:28:14.759Z,13.40
2023-03-06T16:30:43.673Z,13.16
2023-03-06T16:33:11.830Z,13.07
2023-03-06T16:35:39.318Z,12.76
2023-03-06T16:38:06.074Z,12.79
2023-03-06T16:40:41.149Z,12.89
2023-03-06T16:43:09.187Z,12.70
2023-03-06T16:45:38.798Z,12.34
2023-03-06T16:48:06.510Z,12.60
2023-03-06T16:50:40.974Z,12.43
2023-03-06T16:53:08.337Z,12.31
2023-03-06T16:55:35.047Z,12.31
2023-03-06T16:58:01.722Z,11.99
2023-03-06T17:00:33.238Z,11.84
2023-03-06T17:03:01.671Z,11.87
2023-03-06T17:05:29.033Z,11.50
2023-03-06T17:07:56.349Z,11.37
2023-03-06T17:10:26.345Z,11.31
2023-03-06T17:12:54.267Z,11.17
2023-03-06T17:15:21.399Z,11.02
2023-03-06T17:17:48.789Z,11.05
2023-03-06T17:20:15.804Z,10.94
2023-03-06T17:22:42.722Z,10.89
2023-03-06T17:25:09.718Z,10.80
2023-03-06T17:27:36.543Z,10.69
2023-03-06T17:30:04.559Z,10.41
2023-03-06T17:32:32.858Z,10.43
2023-03-06T17:34:59.871Z,10.32
2023-03-06T17:37:26.662Z,10.15
2023-03-06T17:39:53.487Z,10.32
2023-03-06T17:42:20.226Z,10.32
2023-03-06T17:44:48.020Z,10.31
2023-03-06T17:47:14.901Z,10.26
2023-03-06T17:49:41.603Z,10.39
2023-03-06T17:52:08.352Z,10.39
2023-03-06T17:54:35.986Z,10.44
2023-03-06T17:57:05.487Z,10.60
2023-03-06T17:59:36.847Z,10.69
2023-03-06T18:02:04.261Z,10.77
2023-03-06T18:04:31.149Z,10.71
2023-03-06T18:06:58.596Z,10.78
2023-03-06T18:09:25.646Z,10.73
2023-03-06T18:11:52.647Z,10.84
2023-03-06T18:14:19.518Z,10.87
2023-03-06T18:16:46.733Z,10.97
2023-03-06T18:19:13.810Z,10.98
2023-03-06T18:21:40.750Z,10.89
2023-03-06T18:24:08.664Z,10.86
2023-03-06T18:26:36.053Z,10.83
2023-03-06T18:29:04.646Z,10.72
2023-03-06T18:31:37.264Z,10.74
2023-03-06T18:34:10.882Z,10.84
2023-03-06T18:36:38.127Z,10.61
2023-03-06T18:39:09.703Z,10.48
2023-03-06T18:41:36.559Z,10.26
2023-03-06T18:44:03.809Z,10.08
2023-03-06T18:46:38.054Z,10.15
2023-03-06T18:49:06.264Z,10.10
2023-03-06T18:51:33.440Z,10.02
2023-03-06T18:54:01.712Z,10.03
2023-03-06T18:56:28.788Z,9.92
2023-03-06T18:58:56.053Z,9.95
2023-03-06T19:01:23.291Z,9.84
2023-03-06T19:03:50.276Z,9.84
2023-03-06T19:06:17.364Z,9.62
2023-03-06T19:08:44.774Z,9.58
2023-03-06T19:11:16.393Z,9.51
2023-03-06T19:13:43.808Z,9.61
2023-03-06T19:16:21.483Z,9.49
2023-03-06T19:18:48.438Z,9.43
2023-03-06T19:21:20.835Z,9.50
2023-03-06T19:23:47.522Z,9.52
2023-03-06T19:26:14.915Z,9.40
2023-03-06T19:28:42.674Z,9.47
2023-03-06T19:31:20.659Z,9.44
2023-03-06T19:33:49.601Z,9.32
2023-03-06T19:36:18.214Z,9.22
2023-03-06T19:38:45.396Z,9.20
2023-03-06T19:41:13.825Z,9.12
2023-03-06T19:43:42.133Z,9.12
2023-03-06T19:46:15.113Z,8.93
2023-03-06T19:48:42.660Z,9.07
2023-03-06T19:51:10.287Z,9.26
2023-03-06T19:53:37.188Z,9.28
2023-03-06T19:56:20.055Z,9.32
2023-03-06T19:58:46.958Z,9.22
2023-03-06T20:01:17.093Z,9.32
2023-03-06T20:03:44.135Z,9.23
2023-03-06T20:06:14.016Z,9.41
2023-03-06T20:08:40.672Z,9.35
2023-03-06T20:11:07.330Z,9.16
2023-03-06T20:13:34.070Z,9.28
2023-03-06T20:16:04.163Z,8.89
2023-03-06T20:18:30.906Z,8.81
2023-03-06T20:23:57.029Z,8.95
2023-03-06T20:26:25.465Z,8.50
2023-03-06T20:28:52.177Z,8.43
2023-03-06T20:31:26.743Z,8.17
2023-03-06T20:33:55.180Z,8.00
2023-03-06T20:36:30.396Z,8.46
2023-03-06T20:38:59.864Z,8.41
2023-03-06T20:41:28.738Z,8.52
2023-03-06T20:43:55.915Z,8.51
2023-03-06T20:46:23.226Z,8.48
2023-03-06T20:48:52.338Z,8.47
2023-03-06T20:51:28.790Z,8.53
2023-03-06T20:53:56.521Z,8.61
2023-03-06T20:56:29.225Z,8.69
2023-03-06T20:58:56.942Z,8.91
2023-03-06T21:01:29.131Z,8.75
2023-03-06T21:03:57.065Z,8.67
2023-03-06T21:06:24.664Z,8.66
2023-03-06T21:08:51.465Z,8.69
2023-03-06T21:11:18.702Z,8.69
2023-03-06T21:13:45.350Z,8.82
2023-03-06T21:16:15.313Z,8.77
2023-03-06T21:18:42.381Z,8.78
2023-03-06T21:21:23.717Z,8.60
2023-03-06T21:23:51.181Z,8.62
2023-03-06T21:26:22.866Z,8.62
2023-03-06T21:28:50.116Z,8.65
2023-03-06T21:31:19.174Z,8.51
2023-03-06T21:33:46.182Z,8.47
2023-03-06T21:36:13.253Z,8.39
2023-03-06T21:38:40.507Z,8.26
2023-03-06T21:41:24.151Z,8.25
2023-03-06T21:43:55.340Z,8.31
2023-03-06T21:46:23.691Z,8.26
2023-03-06T21:48:50.434Z,8.27
2023-03-06T21:51:19.626Z,8.19
2023-03-06T21:53:47.841Z,7.97
2023-03-06T21:56:17.289Z,8.00
2023-03-06T21:58:44.974Z,8.08
2023-03-06T22:01:15.751Z,8.11
2023-03-06T22:03:42.530Z,7.89
2023-03-06T22:06:11.691Z,7.78
2023-03-06T22:08:38.785Z,7.80
2023-03-06T22:11:10.804Z,7.76
2023-03-06T22:13:38.061Z,8.03
2023-03-06T22:16:05.553Z,8.12
2023-03-06T22:18:33.276Z,8.15
2023-03-06T22:21:00.118Z,8.18
2023-03-06T22:23:27.013Z,8.15
2023-03-06T22:25:53.685Z,8.19
2023-03-06T22:28:20.551Z,8.18
2023-03-06T22:30:47.231Z,8.00
2023-03-06T22:33:14.151Z,7.73
2023-03-06T22:35:40.878Z,7.85
2023-03-06T22:38:07.641Z,8.10
2023-03-06T22:40:34.447Z,8.02
2023-03-06T22:43:01.220Z,7.89
2023-03-06T22:45:27.902Z,7.89
2023-03-06T22:48:02.322Z,7.80
2023-03-06T22:50:35.861Z,7.77
2023-03-06T22:53:02.535Z,7.92
2023-03-06T22:55:29.213Z,7.61
2023-03-06T22:57:57.407Z,7.90
2023-03-06T23:00:24.819Z,7.78
2023-03-06T23:02:51.497Z,7.73
2023-03-06T23:05:18.942Z,7.74
2023-03-06T23:07:57.332Z,8.00
2023-03-06T23:10:24.505Z,8.13
2023-03-06T23:12:55.973Z,8.14
2023-03-06T23:15:27.953Z,8.13
2023-03-06T23:17:58.588Z,7.95
2023-03-06T23:20:31.206Z,8.00
2023-03-06T23:23:01.582Z,8.12
2023-03-06T23:25:33.179Z,7.77
2023-03-06T23:28:00.702Z,7.60
2023-03-06T23:30:31.770Z,7.83
2023-03-06T23:33:15.146Z,7.90
2023-03-06T23:35:44.348Z,7.35
2023-03-06T23:38:13.885Z,7.48
2023-03-06T23:40:43.818Z,7.34
2023-03-06T23:43:10.509Z,7.30
2023-03-06T23:45:37.240Z,7.29
2023-03-06T23:48:09.805Z,7.19
2023-03-06T23:50:39.808Z,7.25
2023-03-06T23:53:18.560Z,7.04
2023-03-06T23:55:47.927Z,7.22
2023-03-06T23:58:16.291Z,7.39
